createdAt,value
2022-11-07T00:01:49.978Z,7.50
2022-11-07T00:04:17.770Z,10.52
2022-11-07T00:06:45.203Z,8.10
2022-11-07T00:09:12.747Z,9.73
2022-11-07T00:11:40.315Z,10.73
2022-11-07T00:14:07.844Z,9.07
2022-11-07T00:16:35.383Z,7.00
2022-11-07T00:19:03.319Z,8.00
2022-11-07T00:21:30.796Z,8.20
2022-11-07T00:23:58.720Z,7.25
2022-11-07T00:26:26.571Z,8.65
2022-11-07T00:28:54.436Z,9.48
2022-11-07T00:31:22.370Z,10.40
2022-11-07T00:33:50.085Z,10.35
2022-11-07T00:36:26.252Z,8.38
2022-11-07T00:38:55.160Z,10.05
2022-11-07T00:41:23.474Z,8.23
2022-11-07T00:43:52.000Z,9.10
2022-11-07T00:46:20.608Z,12.07
2022-11-07T00:48:49.014Z,8.68
2022-11-07T00:51:20.311Z,10.80
2022-11-07T00:53:47.874Z,10.95
2022-11-07T00:56:17.706Z,10.35
2022-11-07T00:58:45.225Z,11.65
2022-11-07T01:01:15.063Z,12.15
2022-11-07T01:04:01.829Z,10.48
2022-11-07T01:06:31.651Z,10.07
2022-11-07T01:08:59.650Z,11.82
2022-11-07T01:11:29.452Z,8.18
2022-11-07T01:13:59.030Z,14.30
2022-11-07T01:16:27.724Z,16.02
2022-11-07T01:18:55.616Z,10.23
2022-11-07T01:21:23.545Z,11.80
2022-11-07T01:23:51.271Z,7.68
2022-11-07T01:26:19.188Z,14.38
2022-11-07T01:28:47.030Z,13.40
2022-11-07T01:31:17.268Z,13.63
2022-11-07T01:33:45.644Z,15.23
2022-11-07T01:36:16.620Z,13.32
2022-11-07T01:38:48.559Z,13.68
2022-11-07T01:41:25.653Z,14.00
2022-11-07T01:44:00.784Z,17.13
2022-11-07T01:46:35.486Z,13.43
2022-11-07T01:49:17.484Z,13.70
2022-11-07T01:52:03.992Z,12.43
2022-11-07T01:54:45.594Z,11.50
2022-11-07T01:57:21.569Z,13.30
2022-11-07T01:59:52.663Z,11.73
2022-11-07T02:02:20.210Z,14.32
2022-11-07T02:04:47.784Z,16.58
2022-11-07T02:07:21.197Z,20.45
2022-11-07T02:09:51.210Z,14.80
2022-11-07T02:12:20.834Z,15.45
2022-11-07T02:14:48.704Z,17.10
2022-11-07T02:17:17.081Z,14.57
2022-11-07T02:19:48.693Z,15.50
2022-11-07T02:22:29.049Z,14.80
2022-11-07T02:24:59.867Z,17.85
2022-11-07T02:27:30.008Z,18.65
2022-11-07T02:30:02.459Z,12.65
2022-11-07T02:32:31.156Z,18.40
2022-11-07T02:35:00.437Z,18.00
2022-11-07T02:37:39.497Z,15.20
2022-11-07T02:40:09.730Z,16.55
2022-11-07T02:42:45.237Z,13.43
2022-11-07T02:45:26.384Z,15.98
2022-11-07T02:47:53.954Z,17.52
2022-11-07T02:50:21.882Z,16.33
2022-11-07T02:52:49.317Z,12.35
2022-11-07T02:55:16.939Z,14.30
2022-11-07T02:57:45.116Z,10.93
2022-11-07T03:00:14.878Z,13.23
2022-11-07T03:02:47.406Z,13.82
2022-11-07T03:05:17.659Z,9.68
2022-11-07T03:07:46.859Z,13.30
2022-11-07T03:12:42.924Z,11.60
2022-11-07T03:15:12.566Z,12.65
2022-11-07T03:17:40.750Z,14.77
2022-11-07T03:20:09.667Z,13.52
2022-11-07T03:22:37.489Z,15.80
2022-11-07T03:25:07.315Z,13.10
2022-11-07T03:27:34.828Z,15.38
2022-11-07T03:30:02.716Z,13.13
2022-11-07T03:32:32.279Z,18.90
2022-11-07T03:35:00.024Z,15.57
2022-11-07T03:37:27.414Z,13.13
2022-11-07T03:39:55.269Z,13.43
2022-11-07T03:42:22.981Z,13.32
2022-11-07T03:44:50.478Z,13.30
2022-11-07T03:47:17.918Z,13.52
2022-11-07T03:49:45.661Z,12.05
2022-11-07T03:52:13.079Z,15.38
2022-11-07T03:54:40.516Z,14.73
2022-11-07T03:57:07.992Z,13.00
2022-11-07T03:59:35.527Z,12.02
2022-11-07T04:02:03.717Z,14.90
2022-11-07T04:04:31.330Z,12.50
2022-11-07T04:06:58.740Z,12.80
2022-11-07T04:09:26.488Z,11.32
2022-11-07T04:12:12.846Z,11.73
2022-11-07T04:14:58.981Z,12.18
2022-11-07T04:17:27.404Z,11.60
2022-11-07T04:19:56.061Z,13.90
2022-11-07T04:22:24.570Z,11.95
2022-11-07T04:24:52.316Z,14.07
2022-11-07T04:27:38.812Z,10.82
2022-11-07T04:30:19.427Z,9.98
2022-11-07T04:32:52.642Z,14.77
2022-11-07T04:35:21.903Z,11.50
2022-11-07T04:37:49.820Z,13.43
2022-11-07T04:40:18.032Z,13.73
2022-11-07T04:42:47.254Z,10.63
2022-11-07T04:45:15.765Z,12.98
2022-11-07T04:47:43.411Z,10.82
2022-11-07T04:50:13.664Z,17.17
2022-11-07T04:52:41.609Z,14.63
2022-11-07T04:55:16.380Z,16.30
2022-11-07T04:57:44.036Z,12.73
2022-11-07T05:00:12.063Z,11.43
2022-11-07T05:02:39.612Z,14.00
2022-11-07T05:05:07.611Z,12.85
2022-11-07T05:07:35.148Z,11.38
2022-11-07T05:10:06.190Z,11.70
2022-11-07T05:12:36.057Z,11.35
2022-11-07T05:15:04.176Z,10.23
2022-11-07T05:17:31.747Z,9.67
2022-11-07T05:19:59.701Z,10.25
2022-11-07T05:22:46.148Z,12.02
2022-11-07T05:25:13.641Z,12.68
2022-11-07T05:27:41.272Z,11.73
2022-11-07T05:30:11.047Z,12.50
2022-11-07T05:32:39.168Z,10.77
2022-11-07T05:35:07.098Z,12.13
2022-11-07T05:37:34.589Z,13.07
2022-11-07T05:40:03.052Z,8.73
2022-11-07T05:42:30.887Z,11.68
2022-11-07T05:44:58.606Z,11.63
2022-11-07T05:47:26.358Z,9.63
2022-11-07T05:49:54.156Z,11.70
2022-11-07T05:52:21.915Z,11.82
2022-11-07T05:54:49.638Z,11.27
2022-11-07T05:57:17.143Z,10.63
2022-11-07T05:59:44.913Z,12.35
2022-11-07T06:02:12.671Z,10.63
2022-11-07T06:04:40.170Z,8.55
2022-11-07T06:07:07.978Z,10.40
2022-11-07T06:09:35.563Z,8.50
2022-11-07T06:12:04.005Z,8.98
2022-11-07T06:14:31.816Z,9.25
2022-11-07T06:16:59.546Z,9.35
2022-11-07T06:19:27.306Z,9.45
2022-11-07T06:21:54.959Z,11.73
2022-11-07T06:24:22.712Z,9.75
2022-11-07T06:26:50.398Z,11.35
2022-11-07T06:29:18.014Z,12.10
2022-11-07T06:31:45.874Z,9.60
2022-11-07T06:34:13.464Z,13.20
2022-11-07T06:36:40.977Z,13.02
2022-11-07T06:39:08.866Z,11.63
2022-11-07T06:41:36.539Z,10.98
2022-11-07T06:44:04.254Z,11.60
2022-11-07T06:46:31.663Z,9.98
2022-11-07T06:48:59.092Z,11.27
2022-11-07T06:51:27.006Z,11.13
2022-11-07T06:53:54.743Z,11.75
2022-11-07T06:56:22.583Z,11.80
2022-11-07T06:58:50.341Z,10.38
2022-11-07T07:01:18.434Z,8.77
2022-11-07T07:03:46.490Z,11.13
2022-11-07T07:06:16.211Z,12.98
2022-11-07T07:08:46.071Z,11.27
2022-11-07T07:11:15.699Z,11.93
2022-11-07T07:13:43.568Z,14.35
2022-11-07T07:16:11.076Z,14.20
2022-11-07T07:18:38.844Z,16.83
2022-11-07T07:21:09.433Z,16.15
2022-11-07T07:23:38.657Z,18.05
2022-11-07T07:26:10.039Z,17.85
2022-11-07T07:28:37.922Z,15.38
2022-11-07T07:31:14.484Z,17.33
2022-11-07T07:33:46.380Z,22.85
2022-11-07T07:36:19.372Z,20.80
2022-11-07T07:38:49.605Z,21.38
2022-11-07T07:41:18.407Z,17.95
2022-11-07T07:43:45.906Z,17.63
2022-11-07T07:46:16.253Z,21.15
2022-11-07T07:48:44.107Z,17.63
2022-11-07T07:51:11.832Z,17.30
2022-11-07T07:53:39.716Z,20.45
2022-11-07T07:56:07.703Z,16.98
2022-11-07T07:58:35.908Z,17.23
2022-11-07T08:01:10.222Z,20.13
2022-11-07T08:03:59.671Z,15.88
2022-11-07T08:06:25.854Z,20.90
2022-11-07T08:08:53.579Z,18.10
2022-11-07T08:11:21.493Z,16.45
2022-11-07T08:13:48.956Z,16.10
2022-11-07T08:16:16.671Z,19.65
2022-11-07T08:18:44.460Z,22.70
2022-11-07T08:21:12.250Z,16.80
2022-11-07T08:23:39.931Z,17.25
2022-11-07T08:26:07.487Z,16.23
2022-11-07T08:28:36.110Z,15.68
2022-11-07T08:31:08.902Z,12.38
2022-11-07T08:33:36.729Z,15.15
2022-11-07T08:36:06.028Z,16.83
2022-11-07T08:38:35.401Z,15.57
2022-11-07T08:41:04.735Z,16.25
2022-11-07T08:43:32.331Z,15.68
2022-11-07T08:45:59.841Z,20.35
2022-11-07T08:48:27.392Z,15.05
2022-11-07T08:50:57.440Z,17.67
2022-11-07T08:53:26.804Z,17.23
2022-11-07T08:56:01.877Z,17.73
2022-11-07T08:58:30.381Z,19.92
2022-11-07T09:00:59.270Z,16.77
2022-11-07T09:06:15.141Z,17.85
2022-11-07T09:08:42.649Z,15.93
2022-11-07T09:11:15.825Z,15.23
2022-11-07T09:13:43.570Z,19.50
2022-11-07T09:16:11.305Z,17.33
2022-11-07T09:18:39.437Z,18.58
2022-11-07T09:21:07.197Z,20.98
2022-11-07T09:23:34.983Z,14.35
2022-11-07T09:26:03.276Z,13.05
2022-11-07T09:28:31.384Z,17.80
2022-11-07T09:31:00.679Z,15.90
2022-11-07T09:35:59.689Z,13.98
2022-11-07T09:38:27.416Z,18.70
2022-11-07T09:41:19.912Z,13.00
2022-11-07T09:44:10.049Z,14.52
2022-11-07T09:46:46.247Z,14.05
2022-11-07T09:49:20.360Z,13.52
2022-11-07T09:51:53.806Z,12.15
2022-11-07T09:54:27.543Z,18.77
2022-11-07T09:56:58.053Z,13.90
2022-11-07T09:59:48.983Z,13.93
2022-11-07T10:02:20.432Z,14.75
2022-11-07T10:04:55.655Z,14.25
2022-11-07T10:07:33.850Z,18.17
2022-11-07T10:10:11.180Z,11.60
2022-11-07T10:13:05.946Z,13.00
2022-11-07T10:16:18.058Z,12.93
2022-11-07T10:19:00.689Z,17.27
2022-11-07T10:21:37.547Z,15.15
2022-11-07T10:24:26.659Z,15.38
2022-11-07T10:26:56.235Z,16.73
2022-11-07T10:29:26.597Z,13.73
2022-11-07T10:32:19.690Z,13.70
2022-11-07T10:34:55.670Z,15.93
2022-11-07T10:37:23.543Z,15.35
2022-11-07T10:39:51.412Z,13.73
2022-11-07T10:42:23.422Z,13.10
2022-11-07T10:44:53.520Z,12.73
2022-11-07T10:47:23.703Z,12.50
2022-11-07T10:50:04.451Z,15.32
2022-11-07T10:52:32.240Z,13.48
2022-11-07T10:55:15.728Z,13.57
2022-11-07T10:57:45.977Z,12.93
2022-11-07T11:00:24.441Z,11.73
2022-11-07T11:02:53.526Z,10.93
2022-11-07T11:07:57.812Z,12.98
2022-11-07T11:10:31.098Z,13.35
2022-11-07T11:12:58.712Z,15.70
2022-11-07T11:15:32.773Z,13.02
2022-11-07T11:18:06.331Z,12.02
2022-11-07T11:20:36.313Z,15.48
2022-11-07T11:23:15.911Z,11.52
2022-11-07T11:25:48.823Z,10.55
2022-11-07T11:29:00.276Z,10.77
2022-11-07T11:31:30.766Z,13.10
2022-11-07T11:34:01.575Z,11.95
2022-11-07T11:36:38.767Z,12.32
2022-11-07T11:39:26.281Z,13.20
2022-11-07T11:42:00.367Z,12.60
2022-11-07T11:44:37.209Z,10.20
2022-11-07T11:47:29.137Z,13.02
2022-11-07T11:50:22.979Z,11.73
2022-11-07T11:52:50.824Z,9.63
2022-11-07T11:55:23.871Z,11.85
2022-11-07T11:58:13.243Z,9.40
2022-11-07T12:00:53.779Z,10.95
2022-11-07T12:03:44.577Z,9.30
2022-11-07T12:06:16.438Z,9.65
2022-11-07T12:08:44.208Z,9.43
2022-11-07T12:11:23.079Z,12.00
2022-11-07T12:14:11.511Z,12.15
2022-11-07T12:17:14.444Z,9.48
2022-11-07T12:19:51.304Z,9.57
2022-11-07T12:23:05.909Z,11.27
2022-11-07T12:25:43.089Z,11.13
2022-11-07T12:28:48.987Z,9.43
2022-11-07T12:31:34.372Z,10.00
2022-11-07T12:34:42.986Z,10.32
2022-11-07T12:37:52.706Z,9.35
2022-11-07T12:40:30.721Z,11.50
2022-11-07T12:43:10.643Z,8.82
2022-11-07T12:45:59.964Z,10.77
2022-11-07T12:48:55.201Z,9.13
2022-11-07T12:51:26.283Z,11.95
2022-11-07T12:54:16.628Z,10.55
2022-11-07T12:56:47.043Z,10.18
2022-11-07T12:59:26.386Z,8.48
2022-11-07T13:02:30.590Z,10.02
2022-11-07T13:05:16.455Z,8.10
2022-11-07T13:07:52.677Z,12.88
2022-11-07T13:10:26.570Z,13.43
2022-11-07T13:13:25.082Z,10.88
2022-11-07T13:21:09.656Z,10.30
2022-11-07T13:23:38.571Z,12.20
2022-11-07T13:26:26.337Z,10.82
2022-11-07T13:28:58.792Z,12.10
2022-11-07T13:31:38.456Z,12.38
2022-11-07T13:34:18.370Z,8.77
2022-11-07T13:36:48.568Z,11.65
2022-11-07T13:39:17.510Z,10.52
2022-11-07T13:41:46.232Z,13.20
2022-11-07T13:44:29.160Z,11.77
2022-11-07T13:46:59.455Z,20.30
2022-11-07T13:49:36.048Z,14.82
2022-11-07T13:52:14.828Z,10.63
2022-11-07T13:55:03.452Z,10.98
2022-11-07T13:57:37.131Z,18.42
2022-11-07T14:00:14.359Z,16.65
2022-11-07T14:02:54.715Z,14.30
2022-11-07T14:05:26.160Z,14.55
2022-11-07T14:08:02.465Z,11.88
2022-11-07T14:10:39.946Z,12.95
2022-11-07T14:13:12.371Z,16.45
2022-11-07T14:16:22.868Z,14.63
2022-11-07T14:18:58.236Z,12.93
2022-11-07T14:21:29.108Z,14.68
2022-11-07T14:23:58.869Z,13.73
2022-11-07T14:26:28.249Z,14.27
2022-11-07T14:28:57.685Z,12.68
2022-11-07T14:31:27.210Z,14.02
2022-11-07T14:34:00.071Z,12.10
2022-11-07T14:36:28.527Z,10.82
2022-11-07T14:39:12.748Z,9.00
2022-11-07T14:41:44.309Z,11.50
2022-11-07T14:44:19.459Z,13.00
2022-11-07T14:46:48.717Z,12.60
2022-11-07T14:49:24.184Z,14.45
2022-11-07T14:51:53.291Z,12.68
2022-11-07T14:54:24.247Z,10.70
2022-11-07T14:56:55.855Z,13.10
2022-11-07T14:59:26.525Z,14.02
2022-11-07T15:01:58.759Z,13.55
2022-11-07T15:04:34.060Z,13.40
2022-11-07T15:07:22.160Z,11.07
2022-11-07T15:09:51.180Z,10.70
2022-11-07T15:12:27.589Z,12.68
2022-11-07T15:15:06.999Z,14.27
2022-11-07T15:17:43.723Z,12.43
2022-11-07T15:20:31.471Z,11.35
2022-11-07T15:23:01.059Z,12.75
2022-11-07T15:25:50.856Z,12.73
2022-11-07T15:28:20.038Z,13.40
2022-11-07T15:30:48.978Z,16.13
2022-11-07T15:33:18.347Z,10.20
2022-11-07T15:38:23.906Z,9.40
2022-11-07T15:40:51.957Z,9.75
2022-11-07T15:43:20.205Z,11.52
2022-11-07T15:45:49.649Z,10.68
2022-11-07T15:48:20.930Z,11.65
2022-11-07T15:50:50.083Z,8.50
2022-11-07T15:53:29.213Z,9.40
2022-11-07T15:56:01.720Z,10.40
2022-11-07T15:58:30.044Z,14.10
2022-11-07T16:01:01.417Z,9.53
2022-11-07T16:03:29.037Z,10.32
2022-11-07T16:06:01.714Z,15.65
2022-11-07T16:08:30.776Z,18.63
2022-11-07T16:11:01.224Z,16.00
2022-11-07T16:13:28.870Z,9.98
2022-11-07T16:16:00.596Z,13.30
2022-11-07T16:18:33.651Z,11.10
2022-11-07T16:21:01.556Z,10.35
2022-11-07T16:23:29.320Z,7.95
2022-11-07T16:25:57.229Z,8.35
2022-11-07T16:28:29.092Z,10.77
2022-11-07T16:30:56.875Z,8.98
2022-11-07T16:33:26.093Z,10.45
2022-11-07T16:38:25.599Z,8.73
2022-11-07T16:40:53.853Z,9.95
2022-11-07T16:43:21.456Z,10.55
2022-11-07T16:45:53.412Z,11.70
2022-11-07T16:48:24.452Z,9.40
2022-11-07T16:50:53.101Z,14.20
2022-11-07T16:53:21.299Z,17.13
2022-11-07T16:55:54.008Z,24.10
2022-11-07T16:58:30.649Z,13.93
2022-11-07T17:01:00.513Z,11.88
2022-11-07T17:03:29.404Z,10.35
2022-11-07T17:05:59.892Z,11.18
2022-11-07T17:08:39.266Z,10.75
2022-11-07T17:11:07.642Z,9.38
2022-11-07T17:13:37.052Z,10.63
2022-11-07T17:16:21.762Z,12.98
2022-11-07T17:18:50.355Z,10.00
2022-11-07T17:21:32.348Z,9.45
2022-11-07T17:24:01.503Z,10.82
2022-11-07T17:26:38.937Z,6.68
2022-11-07T17:29:08.474Z,9.63
2022-11-07T17:31:36.458Z,8.95
2022-11-07T17:34:04.448Z,9.65
2022-11-07T17:36:36.980Z,7.50
2022-11-07T17:39:11.398Z,9.25
2022-11-07T17:41:40.939Z,10.48
2022-11-07T17:44:10.600Z,12.68
2022-11-07T17:46:47.879Z,10.07
2022-11-07T17:49:18.643Z,11.32
2022-11-07T17:51:46.281Z,7.25
2022-11-07T17:54:15.720Z,8.15
2022-11-07T17:56:43.690Z,7.22
2022-11-07T17:59:16.497Z,10.02
2022-11-07T18:01:45.062Z,7.55
2022-11-07T18:04:13.942Z,10.38
2022-11-07T18:06:43.399Z,14.43
2022-11-07T18:09:16.196Z,16.70
2022-11-07T18:11:44.400Z,14.43
2022-11-07T18:14:14.037Z,8.23
2022-11-07T18:16:41.907Z,16.90
2022-11-07T18:19:10.211Z,12.20
2022-11-07T18:21:37.907Z,12.95
2022-11-07T18:24:06.168Z,9.95
2022-11-07T18:26:34.860Z,8.52
2022-11-07T18:31:32.346Z,13.73
2022-11-07T18:34:02.138Z,16.65
2022-11-07T18:36:31.488Z,12.00
2022-11-07T18:39:04.383Z,10.18
2022-11-07T18:41:32.274Z,9.60
2022-11-07T18:44:04.485Z,9.93
2022-11-07T18:46:32.842Z,9.07
2022-11-07T18:49:00.972Z,10.57
2022-11-07T18:51:28.653Z,16.00
2022-11-07T18:53:56.396Z,14.13
2022-11-07T18:56:24.185Z,10.07
2022-11-07T18:58:52.371Z,11.63
2022-11-07T19:01:24.429Z,12.60
2022-11-07T19:03:52.896Z,11.90
2022-11-07T19:06:22.291Z,11.75
2022-11-07T19:08:50.303Z,12.63
2022-11-07T19:11:26.528Z,7.82
2022-11-07T19:13:59.705Z,10.68
2022-11-07T19:16:28.842Z,11.13
2022-11-07T19:18:59.216Z,11.18
2022-11-07T19:21:27.495Z,11.45
2022-11-07T19:26:24.839Z,12.57
2022-11-07T19:28:57.356Z,12.68
2022-11-07T19:31:26.291Z,10.68
2022-11-07T19:33:56.338Z,10.35
2022-11-07T19:36:24.053Z,10.82
2022-11-07T19:38:51.985Z,9.43
2022-11-07T19:41:19.849Z,9.77
2022-11-07T19:43:50.864Z,8.18
2022-11-07T19:46:21.832Z,11.35
2022-11-07T19:48:50.931Z,11.48
2022-11-07T19:51:22.819Z,9.30
2022-11-07T19:53:56.699Z,9.98
2022-11-07T19:56:26.302Z,9.57
2022-11-07T19:58:54.599Z,10.63
2022-11-07T20:01:26.526Z,8.77
2022-11-07T20:03:56.134Z,10.65
2022-11-07T20:06:27.871Z,8.93
2022-11-07T20:08:55.897Z,9.65
2022-11-07T20:11:25.257Z,9.00
2022-11-07T20:13:58.650Z,8.25
2022-11-07T20:16:29.546Z,8.15
2022-11-07T20:18:59.790Z,9.82
2022-11-07T20:21:29.107Z,7.15
2022-11-07T20:23:59.453Z,9.40
2022-11-07T20:26:29.853Z,14.38
2022-11-07T20:28:58.668Z,13.10
2022-11-07T20:31:29.153Z,16.75
2022-11-07T20:34:04.958Z,9.80
2022-11-07T20:36:33.828Z,11.35
2022-11-07T20:39:02.289Z,9.18
2022-11-07T20:41:29.822Z,10.20
2022-11-07T20:44:02.085Z,7.80
2022-11-07T20:46:31.837Z,7.55
2022-11-07T20:49:00.725Z,7.72
2022-11-07T20:51:30.228Z,7.80
2022-11-07T20:53:59.224Z,8.98
2022-11-07T20:56:28.279Z,7.53
2022-11-07T20:58:58.112Z,13.45
2022-11-07T21:03:55.256Z,9.88
2022-11-07T21:06:22.685Z,7.20
2022-11-07T21:08:50.548Z,11.18
2022-11-07T21:11:18.297Z,9.75
2022-11-07T21:13:51.423Z,8.23
2022-11-07T21:16:22.379Z,10.68
2022-11-07T21:18:53.717Z,9.18
2022-11-07T21:21:23.870Z,11.75
2022-11-07T21:23:52.337Z,11.13
2022-11-07T21:26:33.446Z,10.38
2022-11-07T21:29:02.421Z,10.65
2022-11-07T21:31:31.348Z,10.38
2022-11-07T21:33:59.438Z,12.73
2022-11-07T21:36:29.569Z,7.32
2022-11-07T21:38:58.644Z,7.65
2022-11-07T21:41:27.790Z,8.95
2022-11-07T21:43:56.697Z,10.57
2022-11-07T21:48:55.049Z,10.05
2022-11-07T21:53:51.681Z,12.45
2022-11-07T21:56:23.730Z,9.52
2022-11-07T21:58:52.951Z,10.27
2022-11-07T22:01:22.377Z,12.75
2022-11-07T22:04:07.937Z,10.52
2022-11-07T22:06:38.844Z,11.13
2022-11-07T22:09:08.044Z,10.43
2022-11-07T22:11:35.596Z,10.10
2022-11-07T22:14:04.023Z,10.18
2022-11-07T22:16:32.752Z,12.55
2022-11-07T22:19:00.719Z,12.20
2022-11-07T22:21:30.577Z,11.20
2022-11-07T22:23:58.759Z,13.68
2022-11-07T22:26:27.841Z,14.38
2022-11-07T22:28:55.507Z,12.25
2022-11-07T22:31:26.017Z,13.57
2022-11-07T22:33:54.837Z,11.93
2022-11-07T22:36:22.834Z,12.40
2022-11-07T22:38:50.415Z,13.50
2022-11-07T22:41:20.804Z,13.07
2022-11-07T22:43:49.144Z,13.02
2022-11-07T22:46:20.550Z,16.23
2022-11-07T22:48:49.141Z,11.05
2022-11-07T22:51:20.235Z,11.77
2022-11-07T22:53:48.296Z,10.45
2022-11-07T22:56:19.426Z,13.37
2022-11-07T22:58:47.887Z,11.13
2022-11-07T23:01:18.603Z,12.38
2022-11-07T23:03:47.340Z,12.35
2022-11-07T23:06:15.919Z,12.05
2022-11-07T23:08:45.001Z,11.18
2022-11-07T23:14:16.156Z,14.73
2022-11-07T23:16:48.309Z,13.18
2022-11-07T23:19:18.535Z,13.88
2022-11-07T23:21:46.879Z,13.27
2022-11-07T23:24:14.948Z,16.75
2022-11-07T23:26:42.813Z,17.97
2022-11-07T23:29:23.982Z,17.45
2022-11-07T23:31:52.180Z,17.05
2022-11-07T23:34:21.160Z,19.30
2022-11-07T23:36:52.236Z,22.27
2022-11-07T23:39:22.144Z,17.25
2022-11-07T23:41:50.040Z,19.98
2022-11-07T23:44:18.201Z,19.65
2022-11-07T23:47:04.441Z,21.23
2022-11-07T23:49:51.076Z,23.88
2022-11-07T23:52:19.153Z,22.80
2022-11-07T23:55:05.170Z,20.48
2022-11-07T23:57:56.758Z,24.13
